SHT21B EGJB-EGLL
Flight info
| Callsign | SHT21B |
|---|---|
| Flight time | 0h 36m |
| Altitude | 19000 |
| Route | ORIST L982 ROXOG |
| Aircraft | A319/M-SDE3FGHIRWY/LB1 |
Departure
| Time | 2026-04-26 18:39 |
|---|---|
| Airport | Guernsey Airport (EGJB) |
Arrival
| Time | 2026-04-26 19:15 |
|---|---|
| Airport | London Heathrow Airport (EGLL) |
| Time | Latitude | Longitude | Altitude | Speed | Heading |
|---|---|---|---|---|---|
| 2026-04-26 18:03 | 49.43254 | -2.59684 | 328 ft | 0 kts | 177° |
| 2026-04-26 18:32 | 49.43258 | -2.59684 | 328 ft | 3 kts | 177° |
| 2026-04-26 18:32 | 49.43286 | -2.59687 | 328 ft | 4 kts | 176° |
| 2026-04-26 18:32 | 49.43313 | -2.59688 | 328 ft | 4 kts | 184° |
| 2026-04-26 18:32 | 49.43331 | -2.59684 | 328 ft | 4 kts | 202° |
| 2026-04-26 18:33 | 49.43350 | -2.59667 | 328 ft | 4 kts | 227° |
| 2026-04-26 18:33 | 49.43361 | -2.59633 | 330 ft | 4 kts | 264° |
| 2026-04-26 18:33 | 49.43362 | -2.59616 | 330 ft | 0 kts | 267° |
| 2026-04-26 18:36 | 49.43361 | -2.59642 | 330 ft | 10 kts | 268° |
| 2026-04-26 18:36 | 49.43348 | -2.59783 | 327 ft | 16 kts | 263° |
| 2026-04-26 18:36 | 49.43340 | -2.60018 | 313 ft | 28 kts | 267° |
| 2026-04-26 18:36 | 49.43330 | -2.60375 | 293 ft | 38 kts | 268° |
| 2026-04-26 18:37 | 49.43330 | -2.60632 | 297 ft | 22 kts | 278° |
| 2026-04-26 18:37 | 49.43357 | -2.60870 | 305 ft | 22 kts | 280° |
| 2026-04-26 18:37 | 49.43362 | -2.61053 | 311 ft | 17 kts | 267° |
| 2026-04-26 18:37 | 49.43359 | -2.61226 | 313 ft | 16 kts | 276° |
| 2026-04-26 18:38 | 49.43422 | -2.61350 | 316 ft | 15 kts | 328° |
| 2026-04-26 18:38 | 49.43467 | -2.61289 | 315 ft | 9 kts | 77° |
| 2026-04-26 18:38 | 49.43469 | -2.61210 | 314 ft | 17 kts | 86° |
| 2026-04-26 18:38 | 49.43489 | -2.60527 | 308 ft | 108 kts | 87° |
| 2026-04-26 18:39 | 49.43534 | -2.59045 | 627 ft | 148 kts | 85° |
| 2026-04-26 18:39 | 49.43579 | -2.57437 | 1524 ft | 148 kts | 88° |
| 2026-04-26 18:39 | 49.43625 | -2.55736 | 2103 ft | 172 kts | 88° |
| 2026-04-26 18:39 | 49.43677 | -2.53783 | 2496 ft | 196 kts | 88° |
| 2026-04-26 18:40 | 49.43747 | -2.51579 | 3063 ft | 214 kts | 84° |
| 2026-04-26 18:40 | 49.44340 | -2.49458 | 3847 ft | 220 kts | 44° |
| 2026-04-26 18:40 | 49.45692 | -2.48295 | 4744 ft | 221 kts | 11° |
| 2026-04-26 18:40 | 49.47187 | -2.47760 | 5677 ft | 223 kts | 11° |
| 2026-04-26 18:41 | 49.48732 | -2.47196 | 6456 ft | 236 kts | 11° |
| 2026-04-26 18:41 | 49.50420 | -2.46568 | 6974 ft | 261 kts | 12° |
| 2026-04-26 18:41 | 49.52244 | -2.45882 | 7678 ft | 275 kts | 12° |
| 2026-04-26 18:41 | 49.54243 | -2.45119 | 8128 ft | 284 kts | 12° |
| 2026-04-26 18:42 | 49.56181 | -2.44376 | 8211 ft | 283 kts | 12° |
| 2026-04-26 18:42 | 49.58109 | -2.43635 | 8217 ft | 282 kts | 12° |
| 2026-04-26 18:42 | 49.60031 | -2.42898 | 8473 ft | 286 kts | 12° |
| 2026-04-26 18:42 | 49.61961 | -2.42159 | 9424 ft | 288 kts | 12° |
| 2026-04-26 18:43 | 49.63926 | -2.41408 | 10325 ft | 293 kts | 12° |
| 2026-04-26 18:43 | 49.65929 | -2.40641 | 11137 ft | 299 kts | 13° |
| 2026-04-26 18:43 | 49.67966 | -2.39844 | 11941 ft | 305 kts | 15° |
| 2026-04-26 18:43 | 49.69301 | -2.39041 | 12479 ft | 309 kts | 26° |
| 2026-04-26 18:44 | 49.71682 | -2.36417 | 13174 ft | 330 kts | 46° |
| 2026-04-26 18:44 | 49.72761 | -2.34485 | 13377 ft | 346 kts | 52° |
| 2026-04-26 18:44 | 49.74324 | -2.31568 | 13924 ft | 357 kts | 51° |
| 2026-04-26 18:44 | 49.75960 | -2.28557 | 14597 ft | 363 kts | 50° |
| 2026-04-26 18:45 | 49.77634 | -2.25508 | 15277 ft | 367 kts | 50° |
| 2026-04-26 18:45 | 49.79322 | -2.22444 | 15984 ft | 371 kts | 49° |
| 2026-04-26 18:45 | 49.81010 | -2.19380 | 16682 ft | 375 kts | 49° |
| 2026-04-26 18:45 | 49.82708 | -2.16294 | 17362 ft | 380 kts | 49° |
| 2026-04-26 18:46 | 49.84538 | -2.12960 | 18087 ft | 384 kts | 48° |
| 2026-04-26 18:46 | 49.86169 | -2.09978 | 18692 ft | 389 kts | 48° |
| 2026-04-26 18:46 | 49.87868 | -2.06865 | 19096 ft | 393 kts | 48° |
| 2026-04-26 18:46 | 49.89682 | -2.03537 | 19224 ft | 393 kts | 48° |
| 2026-04-26 18:47 | 49.91434 | -2.00319 | 19245 ft | 390 kts | 48° |
| 2026-04-26 18:47 | 49.93179 | -1.97108 | 19249 ft | 389 kts | 48° |
| 2026-04-26 18:47 | 49.94929 | -1.93878 | 19248 ft | 389 kts | 49° |
| 2026-04-26 18:47 | 49.96670 | -1.90657 | 19258 ft | 389 kts | 48° |
| 2026-04-26 18:48 | 49.98426 | -1.87445 | 19251 ft | 389 kts | 46° |
| 2026-04-26 18:48 | 50.00408 | -1.84614 | 19253 ft | 387 kts | 35° |
| 2026-04-26 18:48 | 50.02666 | -1.82399 | 19253 ft | 384 kts | 25° |
| 2026-04-26 18:48 | 50.05088 | -1.80496 | 19260 ft | 383 kts | 24° |
| 2026-04-26 18:49 | 50.07458 | -1.78623 | 19258 ft | 382 kts | 24° |
| 2026-04-26 18:49 | 50.09847 | -1.76726 | 19258 ft | 382 kts | 24° |
| 2026-04-26 18:49 | 50.12203 | -1.74722 | 19256 ft | 384 kts | 31° |
| 2026-04-26 18:49 | 50.14337 | -1.72169 | 19261 ft | 386 kts | 38° |
| 2026-04-26 18:50 | 50.16378 | -1.69513 | 19259 ft | 386 kts | 38° |
| 2026-04-26 18:50 | 50.18455 | -1.66825 | 19269 ft | 386 kts | 37° |
| 2026-04-26 18:50 | 50.20520 | -1.64153 | 19266 ft | 386 kts | 37° |
| 2026-04-26 18:50 | 50.22585 | -1.61476 | 19264 ft | 386 kts | 37° |
| 2026-04-26 18:51 | 50.24656 | -1.58803 | 19269 ft | 386 kts | 36° |
| 2026-04-26 18:51 | 50.26919 | -1.56505 | 19268 ft | 383 kts | 25° |
| 2026-04-26 18:51 | 50.29325 | -1.54918 | 19269 ft | 380 kts | 15° |
| 2026-04-26 18:51 | 50.31880 | -1.53669 | 19269 ft | 379 kts | 14° |
| 2026-04-26 18:52 | 50.34402 | -1.52440 | 19269 ft | 379 kts | 14° |
| 2026-04-26 18:52 | 50.36845 | -1.51247 | 19269 ft | 379 kts | 14° |
| 2026-04-26 18:52 | 50.39322 | -1.50031 | 19213 ft | 367 kts | 14° |
| 2026-04-26 18:52 | 50.41745 | -1.48834 | 19278 ft | 365 kts | 14° |
| 2026-04-26 18:53 | 50.44179 | -1.47635 | 19274 ft | 365 kts | 14° |
| 2026-04-26 18:53 | 50.46634 | -1.46430 | 19271 ft | 365 kts | 14° |
| 2026-04-26 18:53 | 50.49058 | -1.45235 | 19272 ft | 365 kts | 14° |
| 2026-04-26 18:53 | 50.51480 | -1.44034 | 19275 ft | 365 kts | 14° |
| 2026-04-26 18:54 | 50.53872 | -1.42724 | 19272 ft | 367 kts | 21° |
| 2026-04-26 18:54 | 50.56076 | -1.40922 | 19279 ft | 369 kts | 26° |
| 2026-04-26 18:54 | 50.58314 | -1.38984 | 19053 ft | 365 kts | 26° |
| 2026-04-26 18:54 | 50.60523 | -1.37088 | 18801 ft | 357 kts | 25° |
| 2026-04-26 18:55 | 50.62685 | -1.35236 | 18483 ft | 351 kts | 25° |
| 2026-04-26 18:55 | 50.64826 | -1.33400 | 18056 ft | 348 kts | 26° |
| 2026-04-26 18:55 | 50.66943 | -1.31579 | 17606 ft | 345 kts | 26° |
| 2026-04-26 18:55 | 50.69040 | -1.29774 | 17148 ft | 343 kts | 26° |
| 2026-04-26 18:56 | 50.71134 | -1.27978 | 16698 ft | 341 kts | 26° |
| 2026-04-26 18:56 | 50.73243 | -1.26163 | 16258 ft | 339 kts | 26° |
| 2026-04-26 18:56 | 50.75311 | -1.24379 | 15824 ft | 338 kts | 27° |
| 2026-04-26 18:56 | 50.77348 | -1.22552 | 15390 ft | 336 kts | 29° |
| 2026-04-26 18:57 | 50.79046 | -1.20886 | 15029 ft | 335 kts | 31° |
| 2026-04-26 18:57 | 50.79693 | -1.20226 | 14891 ft | 335 kts | 32° |
| 2026-04-26 18:57 | 50.82897 | -1.16850 | 14216 ft | 332 kts | 33° |
| 2026-04-26 18:57 | 50.84806 | -1.14814 | 13786 ft | 330 kts | 33° |
| 2026-04-26 18:58 | 50.86713 | -1.12793 | 13372 ft | 328 kts | 33° |
| 2026-04-26 18:58 | 50.88556 | -1.10862 | 13258 ft | 326 kts | 32° |
| 2026-04-26 18:58 | 50.89839 | -1.09527 | 13274 ft | 327 kts | 32° |
| 2026-04-26 18:58 | 50.91708 | -1.07590 | 13273 ft | 328 kts | 32° |
| 2026-04-26 18:59 | 50.93443 | -1.05793 | 13275 ft | 328 kts | 32° |
| 2026-04-26 18:59 | 50.95324 | -1.03844 | 13268 ft | 315 kts | 32° |
| 2026-04-26 18:59 | 50.97115 | -1.01989 | 13253 ft | 302 kts | 32° |
| 2026-04-26 18:59 | 50.98848 | -1.00192 | 13108 ft | 294 kts | 32° |
| 2026-04-26 19:00 | 51.00490 | -0.98298 | 12842 ft | 291 kts | 40° |
| 2026-04-26 19:00 | 51.01869 | -0.96076 | 12562 ft | 289 kts | 48° |
| 2026-04-26 19:00 | 51.03208 | -0.93687 | 12261 ft | 287 kts | 47° |
| 2026-04-26 19:00 | 51.04560 | -0.91284 | 11966 ft | 285 kts | 47° |
| 2026-04-26 19:01 | 51.05905 | -0.88892 | 11675 ft | 283 kts | 47° |
| 2026-04-26 19:01 | 51.07194 | -0.86597 | 11399 ft | 281 kts | 47° |
| 2026-04-26 19:01 | 51.08513 | -0.84250 | 11111 ft | 279 kts | 47° |
| 2026-04-26 19:01 | 51.09802 | -0.81951 | 10832 ft | 278 kts | 47° |
| 2026-04-26 19:02 | 51.11079 | -0.79672 | 10566 ft | 276 kts | 47° |
| 2026-04-26 19:02 | 51.12356 | -0.77392 | 10331 ft | 272 kts | 47° |
| 2026-04-26 19:02 | 51.13609 | -0.75148 | 10207 ft | 265 kts | 47° |
| 2026-04-26 19:02 | 51.14379 | -0.73767 | 10063 ft | 262 kts | 47° |
| 2026-04-26 19:03 | 51.15951 | -0.70947 | 9712 ft | 260 kts | 47° |
| 2026-04-26 19:03 | 51.17170 | -0.68767 | 9384 ft | 260 kts | 47° |
| 2026-04-26 19:03 | 51.18375 | -0.66612 | 9011 ft | 262 kts | 48° |
| 2026-04-26 19:03 | 51.19586 | -0.64436 | 8641 ft | 263 kts | 48° |
| 2026-04-26 19:04 | 51.20742 | -0.62356 | 8318 ft | 265 kts | 48° |
| 2026-04-26 19:04 | 51.21988 | -0.60110 | 7960 ft | 266 kts | 48° |
| 2026-04-26 19:04 | 51.23199 | -0.57923 | 7602 ft | 267 kts | 48° |
| 2026-04-26 19:04 | 51.24518 | -0.55544 | 7304 ft | 265 kts | 48° |
| 2026-04-26 19:05 | 51.26914 | -0.51580 | 7271 ft | 249 kts | 31° |
| 2026-04-26 19:05 | 51.28446 | -0.50664 | 7272 ft | 247 kts | 6° |
| 2026-04-26 19:05 | 51.30189 | -0.50921 | 7273 ft | 245 kts | 339° |
| 2026-04-26 19:06 | 51.31644 | -0.52366 | 7271 ft | 243 kts | 313° |
| 2026-04-26 19:06 | 51.32554 | -0.54667 | 7273 ft | 242 kts | 288° |
| 2026-04-26 19:06 | 51.33085 | -0.57252 | 7303 ft | 244 kts | 289° |
| 2026-04-26 19:06 | 51.33712 | -0.59765 | 7291 ft | 243 kts | 291° |
| 2026-04-26 19:07 | 51.34360 | -0.62272 | 7016 ft | 243 kts | 291° |
| 2026-04-26 19:07 | 51.35003 | -0.64758 | 6726 ft | 242 kts | 291° |
| 2026-04-26 19:07 | 51.35634 | -0.67235 | 6436 ft | 240 kts | 291° |
| 2026-04-26 19:07 | 51.36265 | -0.69717 | 6128 ft | 239 kts | 291° |
| 2026-04-26 19:08 | 51.36879 | -0.72172 | 5823 ft | 238 kts | 291° |
| 2026-04-26 19:08 | 51.37482 | -0.74634 | 5508 ft | 237 kts | 291° |
| 2026-04-26 19:08 | 51.38076 | -0.77106 | 5207 ft | 237 kts | 291° |
| 2026-04-26 19:08 | 51.38654 | -0.79554 | 4971 ft | 232 kts | 291° |
| 2026-04-26 19:09 | 51.39427 | -0.81768 | 4698 ft | 228 kts | 316° |
| 2026-04-26 19:09 | 51.40773 | -0.82952 | 4482 ft | 219 kts | 350° |
| 2026-04-26 19:09 | 51.42278 | -0.83030 | 4338 ft | 209 kts | 14° |
| 2026-04-26 19:09 | 51.43473 | -0.81930 | 4187 ft | 199 kts | 50° |
| 2026-04-26 19:10 | 51.44027 | -0.80704 | 4104 ft | 192 kts | 59° |
| 2026-04-26 19:10 | 51.44611 | -0.78834 | 3883 ft | 187 kts | 65° |
| 2026-04-26 19:10 | 51.45154 | -0.76998 | 3755 ft | 177 kts | 65° |
| 2026-04-26 19:10 | 51.45666 | -0.75257 | 3604 ft | 169 kts | 66° |
| 2026-04-26 19:11 | 51.46156 | -0.73589 | 3374 ft | 165 kts | 66° |
| 2026-04-26 19:11 | 51.46642 | -0.71932 | 3053 ft | 164 kts | 66° |
| 2026-04-26 19:11 | 51.47126 | -0.70280 | 3007 ft | 163 kts | 66° |
| 2026-04-26 19:11 | 51.47580 | -0.68616 | 2951 ft | 160 kts | 75° |
| 2026-04-26 19:12 | 51.47669 | -0.66832 | 2546 ft | 164 kts | 90° |
| 2026-04-26 19:12 | 51.47673 | -0.64995 | 2218 ft | 162 kts | 91° |
| 2026-04-26 19:12 | 51.47680 | -0.63217 | 1954 ft | 159 kts | 91° |
| 2026-04-26 19:12 | 51.47688 | -0.61475 | 1734 ft | 155 kts | 90° |
| 2026-04-26 19:13 | 51.47698 | -0.59600 | 1508 ft | 153 kts | 90° |
| 2026-04-26 19:13 | 51.47705 | -0.58084 | 1323 ft | 148 kts | 91° |
| 2026-04-26 19:13 | 51.47713 | -0.56421 | 1115 ft | 144 kts | 90° |
| 2026-04-26 19:13 | 51.47720 | -0.54864 | 925 ft | 141 kts | 91° |
| 2026-04-26 19:14 | 51.47728 | -0.53282 | 721 ft | 137 kts | 90° |
| 2026-04-26 19:14 | 51.47734 | -0.51751 | 543 ft | 137 kts | 90° |
| 2026-04-26 19:14 | 51.47741 | -0.50348 | 378 ft | 137 kts | 91° |
| 2026-04-26 19:14 | 51.47745 | -0.49344 | 242 ft | 136 kts | 90° |
| 2026-04-26 19:15 | 51.47753 | -0.47299 | 85 ft | 104 kts | 90° |
| 2026-04-26 19:15 | 51.47754 | -0.46587 | 89 ft | 28 kts | 89° |
| 2026-04-26 19:15 | 51.47757 | -0.46330 | 88 ft | 25 kts | 90° |
| 2026-04-26 19:15 | 51.47701 | -0.46143 | 86 ft | 19 kts | 138° |
| 2026-04-26 19:16 | 51.47669 | -0.46105 | 86 ft | 0 kts | 144° |
| 2026-04-26 19:16 | 51.47662 | -0.46096 | 90 ft | 0 kts | 144° |
| 2026-04-26 19:18 | 51.47644 | -0.46080 | 87 ft | 0 kts | 157° |
| 2026-04-26 19:19 | 51.47633 | -0.46074 | 87 ft | 0 kts | 162° |
| 2026-04-26 19:19 | 51.47608 | -0.46088 | 86 ft | 6 kts | 217° |
| 2026-04-26 19:19 | 51.47593 | -0.46183 | 87 ft | 11 kts | 270° |
| 2026-04-26 19:19 | 51.47594 | -0.46336 | 86 ft | 16 kts | 270° |
| 2026-04-26 19:20 | 51.47593 | -0.46549 | 86 ft | 21 kts | 269° |
| 2026-04-26 19:20 | 51.47592 | -0.46709 | 86 ft | 20 kts | 270° |
| 2026-04-26 19:20 | 51.47585 | -0.46892 | 86 ft | 13 kts | 265° |
| 2026-04-26 19:20 | 51.47582 | -0.47062 | 89 ft | 18 kts | 270° |
| 2026-04-26 19:21 | 51.47583 | -0.47221 | 88 ft | 21 kts | 270° |
| 2026-04-26 19:21 | 51.47588 | -0.47410 | 87 ft | 6 kts | 266° |
| 2026-04-26 19:21 | 51.47581 | -0.47521 | 88 ft | 14 kts | 268° |
| 2026-04-26 19:21 | 51.47580 | -0.47706 | 86 ft | 19 kts | 269° |
| 2026-04-26 19:22 | 51.47579 | -0.47951 | 88 ft | 24 kts | 270° |
| 2026-04-26 19:22 | 51.47578 | -0.48142 | 88 ft | 21 kts | 269° |
| 2026-04-26 19:22 | 51.47578 | -0.48317 | 86 ft | 17 kts | 270° |
| 2026-04-26 19:22 | 51.47578 | -0.48476 | 87 ft | 13 kts | 270° |
| 2026-04-26 19:23 | 51.47578 | -0.48506 | 86 ft | 3 kts | 270° |
| 2026-04-26 19:23 | 51.47577 | -0.48532 | 88 ft | 6 kts | 269° |
| 2026-04-26 19:23 | 51.47576 | -0.48701 | 86 ft | 20 kts | 270° |
| 2026-04-26 19:24 | 51.47576 | -0.48865 | 86 ft | 14 kts | 269° |
| 2026-04-26 19:24 | 51.47543 | -0.48947 | 87 ft | 11 kts | 191° |
| 2026-04-26 19:24 | 51.47450 | -0.48953 | 86 ft | 4 kts | 180° |
| 2026-04-26 19:25 | 51.47430 | -0.48953 | 86 ft | 1 kts | 180° |
| 2026-04-26 19:25 | 51.47420 | -0.48953 | 86 ft | 2 kts | 179° |
| 2026-04-26 19:25 | 51.47416 | -0.48953 | 86 ft | 0 kts | 180° |